createdAt,value
2023-03-13T00:01:01.447Z,1.30
2023-03-13T00:03:29.608Z,1.27
2023-03-13T00:05:59.453Z,1.20
2023-03-13T00:08:30.468Z,1.50
2023-03-13T00:10:58.688Z,1.20
2023-03-13T00:13:26.569Z,1.30
2023-03-13T00:16:01.465Z,1.20
2023-03-13T00:18:29.392Z,1.50
2023-03-13T00:21:02.554Z,0.95
2023-03-13T00:23:30.996Z,0.90
2023-03-13T00:26:00.017Z,1.17
2023-03-13T00:28:31.877Z,1.23
2023-03-13T00:31:04.398Z,1.20
2023-03-13T00:33:33.364Z,1.58
2023-03-13T00:36:04.103Z,1.63
2023-03-13T00:38:32.692Z,1.50
2023-03-13T00:41:02.258Z,1.20
2023-03-13T00:43:31.046Z,1.45
2023-03-13T00:45:59.891Z,1.08
2023-03-13T00:48:27.957Z,1.17
2023-03-13T00:50:56.281Z,1.10
2023-03-13T00:53:25.780Z,1.20
2023-03-13T00:55:57.640Z,0.90
2023-03-13T00:58:26.762Z,1.27
2023-03-13T01:00:55.304Z,1.38
2023-03-13T01:03:25.881Z,1.05
2023-03-13T01:05:58.236Z,1.13
2023-03-13T01:08:29.619Z,0.98
2023-03-13T01:11:01.170Z,1.10
2023-03-13T01:13:29.502Z,1.05
2023-03-13T01:15:58.767Z,1.27
2023-03-13T01:18:26.805Z,0.68
2023-03-13T01:20:55.050Z,1.00
2023-03-13T01:23:23.235Z,0.80
2023-03-13T01:25:52.543Z,0.95
2023-03-13T01:28:20.481Z,1.00
2023-03-13T01:30:49.346Z,1.10
2023-03-13T01:33:17.281Z,0.77
2023-03-13T01:35:45.923Z,0.90
2023-03-13T01:38:15.141Z,0.98
2023-03-13T01:40:44.483Z,1.00
2023-03-13T01:43:27.063Z,0.98
2023-03-13T01:46:01.703Z,1.13
2023-03-13T01:48:44.613Z,0.90
2023-03-13T01:51:17.804Z,1.00
2023-03-13T01:53:48.497Z,0.85
2023-03-13T01:56:21.679Z,1.00
2023-03-13T01:58:53.469Z,0.80
2023-03-13T02:01:21.908Z,0.90
2023-03-13T02:03:51.392Z,0.82
2023-03-13T02:06:20.119Z,1.10
2023-03-13T02:08:52.860Z,1.20
2023-03-13T02:11:29.014Z,0.98
2023-03-13T02:14:00.278Z,0.82
2023-03-13T02:16:29.306Z,0.90
2023-03-13T02:18:57.359Z,0.80
2023-03-13T02:21:38.722Z,0.98
2023-03-13T02:24:15.610Z,0.82
2023-03-13T02:26:45.030Z,0.93
2023-03-13T02:29:18.394Z,0.95
2023-03-13T02:31:48.104Z,0.90
2023-03-13T02:34:21.835Z,1.08
2023-03-13T02:36:51.159Z,0.88
2023-03-13T02:39:23.757Z,0.60
2023-03-13T02:41:54.304Z,0.95
2023-03-13T02:44:22.683Z,1.30
2023-03-13T02:46:53.398Z,0.82
2023-03-13T02:49:28.586Z,0.85
2023-03-13T02:52:01.046Z,1.00
2023-03-13T02:54:34.620Z,1.00
2023-03-13T02:57:06.035Z,1.08
2023-03-13T02:59:35.784Z,0.93
2023-03-13T03:02:04.387Z,1.10
2023-03-13T03:04:32.401Z,1.40
2023-03-13T03:07:00.464Z,1.40
2023-03-13T03:09:29.102Z,1.77
2023-03-13T03:12:00.985Z,1.80
2023-03-13T03:14:31.574Z,2.22
2023-03-13T03:16:59.576Z,2.13
2023-03-13T03:19:28.650Z,2.28
2023-03-13T03:21:56.696Z,2.40
2023-03-13T03:24:24.638Z,2.50
2023-03-13T03:26:52.614Z,1.85
2023-03-13T03:29:28.810Z,2.05
2023-03-13T03:31:59.662Z,1.90
2023-03-13T03:34:27.730Z,1.80
2023-03-13T03:36:57.088Z,2.05
2023-03-13T03:39:25.157Z,2.40
2023-03-13T03:41:53.649Z,1.30
2023-03-13T03:44:22.807Z,1.60
2023-03-13T03:47:02.819Z,1.15
2023-03-13T03:49:35.357Z,1.00
2023-03-13T03:52:03.373Z,1.02
2023-03-13T03:54:37.607Z,1.00
2023-03-13T03:57:05.816Z,0.85
2023-03-13T03:59:34.653Z,0.80
2023-03-13T04:02:10.302Z,1.00
2023-03-13T04:04:38.445Z,0.80
2023-03-13T04:07:11.302Z,0.90
2023-03-13T04:09:40.768Z,0.70
2023-03-13T04:12:11.324Z,0.40
2023-03-13T04:14:43.794Z,0.45
2023-03-13T04:17:16.132Z,0.43
2023-03-13T04:19:45.857Z,0.60
2023-03-13T04:22:13.896Z,0.40
2023-03-13T04:24:47.792Z,0.57
2023-03-13T04:27:15.818Z,0.55
2023-03-13T04:29:45.143Z,0.40
2023-03-13T04:32:30.302Z,0.40
2023-03-13T04:35:17.136Z,0.60
2023-03-13T04:38:03.738Z,0.50
2023-03-13T04:40:49.234Z,0.50
2023-03-13T04:43:36.216Z,0.50
2023-03-13T04:46:30.191Z,0.70
2023-03-13T04:49:16.691Z,0.45
2023-03-13T04:52:22.873Z,0.50
2023-03-13T04:54:59.887Z,0.57
2023-03-13T04:57:43.334Z,0.57
2023-03-13T05:00:29.444Z,0.50
2023-03-13T05:03:12.925Z,0.43
2023-03-13T05:05:53.203Z,0.73
2023-03-13T05:08:42.412Z,0.60
2023-03-13T05:11:32.914Z,0.60
2023-03-13T05:14:17.686Z,0.68
2023-03-13T05:17:02.621Z,0.50
2023-03-13T05:19:53.403Z,0.50
2023-03-13T05:22:57.983Z,0.60
2023-03-13T05:25:34.597Z,0.70
2023-03-13T05:28:18.347Z,0.38
2023-03-13T05:30:52.233Z,0.57
2023-03-13T05:33:37.807Z,0.50
2023-03-13T05:36:24.407Z,0.43
2023-03-13T05:39:18.441Z,0.32
2023-03-13T05:41:49.257Z,0.50
2023-03-13T05:44:52.662Z,0.50
2023-03-13T05:47:41.675Z,0.40
2023-03-13T05:50:32.702Z,0.50
2023-03-13T05:53:21.582Z,0.45
2023-03-13T05:56:23.380Z,0.40
2023-03-13T05:59:05.234Z,0.52
2023-03-13T06:01:45.118Z,0.47
2023-03-13T06:04:20.895Z,0.70
2023-03-13T06:06:49.322Z,0.57
2023-03-13T06:09:18.415Z,0.70
2023-03-13T06:11:48.066Z,0.45
2023-03-13T06:14:16.148Z,0.45
2023-03-13T06:17:04.441Z,0.40
2023-03-13T06:19:32.555Z,0.60
2023-03-13T06:22:00.465Z,0.50
2023-03-13T06:24:28.418Z,0.47
2023-03-13T06:26:57.759Z,0.60
2023-03-13T06:29:25.725Z,0.60
2023-03-13T06:31:53.791Z,0.57
2023-03-13T06:34:21.796Z,0.55
2023-03-13T06:36:49.738Z,0.60
2023-03-13T06:39:17.605Z,0.50
2023-03-13T06:41:45.574Z,0.75
2023-03-13T06:44:14.843Z,0.50
2023-03-13T06:46:42.807Z,0.70
2023-03-13T06:49:11.225Z,0.68
2023-03-13T06:51:39.118Z,0.82
2023-03-13T06:54:07.808Z,0.75
2023-03-13T06:56:35.770Z,0.60
2023-03-13T06:59:04.394Z,0.90
2023-03-13T07:01:33.665Z,0.82
2023-03-13T07:04:01.636Z,0.60
2023-03-13T07:06:29.682Z,0.60
2023-03-13T07:08:57.541Z,0.60
2023-03-13T07:11:26.017Z,0.60
2023-03-13T07:14:06.527Z,0.45
2023-03-13T07:16:42.891Z,0.60
2023-03-13T07:19:11.071Z,0.70
2023-03-13T07:21:39.014Z,0.55
2023-03-13T07:24:07.705Z,0.50
2023-03-13T07:26:35.819Z,0.65
2023-03-13T07:29:03.985Z,0.68
2023-03-13T07:31:34.069Z,0.73
2023-03-13T07:34:03.588Z,0.50
2023-03-13T07:36:31.675Z,0.60
2023-03-13T07:38:59.578Z,0.50
2023-03-13T07:41:27.521Z,0.70
2023-03-13T07:43:57.120Z,0.68
2023-03-13T07:46:25.207Z,0.68
2023-03-13T07:48:55.297Z,0.80
2023-03-13T07:51:42.219Z,1.17
2023-03-13T07:54:10.770Z,1.00
2023-03-13T07:56:38.808Z,0.95
2023-03-13T07:59:07.098Z,1.40
2023-03-13T08:01:35.249Z,0.95
2023-03-13T08:04:03.810Z,1.10
2023-03-13T08:06:35.583Z,1.33
2023-03-13T08:09:05.121Z,1.30
2023-03-13T08:11:33.228Z,1.00
2023-03-13T08:14:01.359Z,0.70
2023-03-13T08:16:31.243Z,0.90
2023-03-13T08:19:01.109Z,1.50
2023-03-13T08:21:30.373Z,1.02
2023-03-13T08:24:01.275Z,1.10
2023-03-13T08:26:30.720Z,1.05
2023-03-13T08:29:00.604Z,0.80
2023-03-13T08:31:30.307Z,0.90
2023-03-13T08:33:58.524Z,0.98
2023-03-13T08:36:27.988Z,0.70
2023-03-13T08:38:59.299Z,0.80
2023-03-13T08:41:30.631Z,1.20
2023-03-13T08:43:59.294Z,0.93
2023-03-13T08:46:30.019Z,0.70
2023-03-13T08:48:58.030Z,1.00
2023-03-13T08:51:27.834Z,1.25
2023-03-13T08:53:56.908Z,0.90
2023-03-13T08:56:26.840Z,0.75
2023-03-13T08:58:58.189Z,0.90
2023-03-13T09:01:27.913Z,1.20
2023-03-13T09:03:56.452Z,1.20
2023-03-13T09:06:24.737Z,0.95
2023-03-13T09:08:52.790Z,1.38
2023-03-13T09:11:22.812Z,1.20
2023-03-13T09:13:51.982Z,0.80
2023-03-13T09:16:22.937Z,0.52
2023-03-13T09:18:51.647Z,0.90
2023-03-13T09:21:21.635Z,1.00
2023-03-13T09:23:50.174Z,1.00
2023-03-13T09:26:22.264Z,0.98
2023-03-13T09:28:50.932Z,1.23
2023-03-13T09:31:22.433Z,0.93
2023-03-13T09:33:51.785Z,0.90
2023-03-13T09:36:22.539Z,0.80
2023-03-13T09:38:51.503Z,1.10
2023-03-13T09:41:27.098Z,1.00
2023-03-13T09:44:02.001Z,1.17
2023-03-13T09:46:38.431Z,1.35
2023-03-13T09:49:14.486Z,0.90
2023-03-13T09:51:48.057Z,0.70
2023-03-13T09:54:25.078Z,0.90
2023-03-13T09:56:57.612Z,0.57
2023-03-13T09:59:32.055Z,0.90
2023-03-13T10:02:05.485Z,0.98
2023-03-13T10:04:41.936Z,0.77
2023-03-13T10:07:12.585Z,0.70
2023-03-13T10:09:41.850Z,0.70
2023-03-13T10:12:16.440Z,0.60
2023-03-13T10:14:50.184Z,0.90
2023-03-13T10:17:31.015Z,0.95
2023-03-13T10:20:02.271Z,0.88
2023-03-13T10:22:32.371Z,0.70
2023-03-13T10:25:04.442Z,0.77
2023-03-13T10:27:32.354Z,1.00
2023-03-13T10:30:00.258Z,1.00
2023-03-13T10:32:29.617Z,0.60
2023-03-13T10:34:59.833Z,0.60
2023-03-13T10:37:29.742Z,0.73
2023-03-13T10:40:13.894Z,0.50
2023-03-13T10:42:46.088Z,0.90
2023-03-13T10:45:18.705Z,0.57
2023-03-13T10:47:55.779Z,0.90
2023-03-13T10:50:27.063Z,0.70
2023-03-13T10:52:56.274Z,0.60
2023-03-13T10:55:26.034Z,0.70
2023-03-13T10:57:59.522Z,0.90
2023-03-13T11:00:35.904Z,0.90
2023-03-13T11:03:08.185Z,0.85
2023-03-13T11:05:43.200Z,0.80
2023-03-13T11:08:23.022Z,1.00
2023-03-13T11:10:57.549Z,0.65
2023-03-13T11:13:36.836Z,0.93
2023-03-13T11:16:18.776Z,0.80
2023-03-13T11:19:10.940Z,0.70
2023-03-13T11:21:48.465Z,0.95
2023-03-13T11:24:24.288Z,0.60
2023-03-13T11:27:05.080Z,0.60
2023-03-13T11:29:42.994Z,0.52
2023-03-13T11:32:24.469Z,0.60
2023-03-13T11:34:59.298Z,0.77
2023-03-13T11:37:29.664Z,0.60
2023-03-13T11:40:07.995Z,0.80
2023-03-13T11:42:49.657Z,0.80
2023-03-13T11:45:41.221Z,0.60
2023-03-13T11:48:19.652Z,0.50
2023-03-13T11:50:53.547Z,0.70
2023-03-13T11:53:32.588Z,0.70
2023-03-13T11:56:08.981Z,0.50
2023-03-13T11:58:52.281Z,0.60
2023-03-13T12:01:21.415Z,0.70
2023-03-13T12:03:57.943Z,0.40
2023-03-13T12:06:32.072Z,0.70
2023-03-13T12:09:07.763Z,0.93
2023-03-13T12:11:43.840Z,0.60
2023-03-13T12:14:17.016Z,0.70
2023-03-13T12:16:49.346Z,0.93
2023-03-13T12:19:23.033Z,0.60
2023-03-13T12:21:54.501Z,0.60
2023-03-13T12:24:29.466Z,0.60
2023-03-13T12:27:02.620Z,0.65
2023-03-13T12:29:44.663Z,0.70
2023-03-13T12:32:17.687Z,0.57
2023-03-13T12:34:56.597Z,0.80
2023-03-13T12:37:34.369Z,0.73
2023-03-13T12:40:12.265Z,0.70
2023-03-13T12:42:47.136Z,0.60
2023-03-13T12:45:18.730Z,0.70
2023-03-13T12:48:38.778Z,0.60
2023-03-13T12:51:21.912Z,0.80
2023-03-13T12:54:14.217Z,0.65
2023-03-13T12:56:56.945Z,0.70
2023-03-13T12:59:31.477Z,0.80
2023-03-13T13:02:00.640Z,0.85
2023-03-13T13:04:30.364Z,0.77
2023-03-13T13:07:02.470Z,0.73
2023-03-13T13:09:33.560Z,0.70
2023-03-13T13:12:04.204Z,0.77
2023-03-13T13:15:11.034Z,0.77
2023-03-13T13:17:50.984Z,0.77
2023-03-13T13:20:49.984Z,0.82
2023-03-13T13:23:34.796Z,0.70
2023-03-13T13:26:49.181Z,0.70
2023-03-13T13:29:56.663Z,1.17
2023-03-13T13:32:47.374Z,0.75
2023-03-13T13:35:30.995Z,0.70
2023-03-13T13:38:36.543Z,0.77
2023-03-13T13:41:07.304Z,0.70
2023-03-13T13:43:36.569Z,0.68
2023-03-13T13:46:09.174Z,0.63
2023-03-13T13:48:40.113Z,1.02
2023-03-13T13:51:25.537Z,0.70
2023-03-13T13:53:59.895Z,0.73
2023-03-13T13:56:37.776Z,0.70
2023-03-13T13:59:22.846Z,0.80
2023-03-13T14:01:52.209Z,0.70
2023-03-13T14:04:34.620Z,0.80
2023-03-13T14:07:05.088Z,0.70
2023-03-13T14:09:37.637Z,0.80
2023-03-13T14:12:26.783Z,0.70
2023-03-13T14:15:09.264Z,0.70
2023-03-13T14:17:42.939Z,0.70
2023-03-13T14:20:36.518Z,0.70
2023-03-13T14:23:07.393Z,0.50
2023-03-13T14:25:45.107Z,0.57
2023-03-13T14:28:21.663Z,0.60
2023-03-13T14:30:51.362Z,0.70
2023-03-13T14:33:19.983Z,0.60
2023-03-13T14:35:49.505Z,0.70
2023-03-13T14:38:20.034Z,0.73
2023-03-13T14:40:48.843Z,0.80
2023-03-13T14:43:29.311Z,0.70
2023-03-13T14:45:57.273Z,0.47
2023-03-13T14:48:31.755Z,0.52
2023-03-13T14:51:15.564Z,0.75
2023-03-13T14:53:58.628Z,0.68
2023-03-13T14:56:35.491Z,1.00
2023-03-13T14:59:18.080Z,0.82
2023-03-13T15:01:47.220Z,0.80
2023-03-13T15:04:15.168Z,0.60
2023-03-13T15:06:44.537Z,0.63
2023-03-13T15:09:18.834Z,0.60
2023-03-13T15:11:56.621Z,0.60
2023-03-13T15:14:37.320Z,0.70
2023-03-13T15:17:12.615Z,0.70
2023-03-13T15:19:40.526Z,0.90
2023-03-13T15:22:14.858Z,0.68
2023-03-13T15:24:45.266Z,0.70
2023-03-13T15:27:18.074Z,0.70
2023-03-13T15:29:46.984Z,0.80
2023-03-13T15:32:24.935Z,0.60
2023-03-13T15:34:58.338Z,0.50
2023-03-13T15:37:28.433Z,0.82
2023-03-13T15:39:57.377Z,0.77
2023-03-13T15:42:26.104Z,0.55
2023-03-13T15:44:54.033Z,0.98
2023-03-13T15:47:23.230Z,0.80
2023-03-13T15:49:51.227Z,0.90
2023-03-13T15:52:22.720Z,0.80
2023-03-13T15:54:52.592Z,0.77
2023-03-13T15:57:24.008Z,0.68
2023-03-13T15:59:52.412Z,0.60
2023-03-13T16:02:22.291Z,0.80
2023-03-13T16:04:52.100Z,0.60
2023-03-13T16:07:21.705Z,0.70
2023-03-13T16:09:49.709Z,0.70
2023-03-13T16:12:19.043Z,0.60
2023-03-13T16:14:46.989Z,0.82
2023-03-13T16:17:16.903Z,0.93
2023-03-13T16:19:44.916Z,0.50
2023-03-13T16:22:13.547Z,0.73
2023-03-13T16:24:41.644Z,0.65
2023-03-13T16:27:14.977Z,0.70
2023-03-13T16:29:44.835Z,0.68
2023-03-13T16:32:14.036Z,0.77
2023-03-13T16:34:43.082Z,0.70
2023-03-13T16:37:13.544Z,0.90
2023-03-13T16:39:41.520Z,0.70
2023-03-13T16:42:09.619Z,0.98
2023-03-13T16:44:37.604Z,0.70
2023-03-13T16:47:16.697Z,0.60
2023-03-13T16:49:47.295Z,0.80
2023-03-13T16:52:16.795Z,0.77
2023-03-13T16:54:45.353Z,0.85
2023-03-13T16:57:15.119Z,0.90
2023-03-13T16:59:43.131Z,1.00
2023-03-13T17:02:16.918Z,1.05
2023-03-13T17:04:45.533Z,1.23
2023-03-13T17:07:22.037Z,0.80
2023-03-13T17:09:50.646Z,1.25
2023-03-13T17:12:19.245Z,1.50
2023-03-13T17:14:47.533Z,1.33
2023-03-13T17:17:19.704Z,1.48
2023-03-13T17:19:48.231Z,1.55
2023-03-13T17:22:18.094Z,1.65
2023-03-13T17:24:46.065Z,1.35
2023-03-13T17:27:15.839Z,1.00
2023-03-13T17:29:44.858Z,0.65
2023-03-13T17:32:13.796Z,1.00
2023-03-13T17:34:43.286Z,0.70
2023-03-13T17:37:15.572Z,0.93
2023-03-13T17:39:44.635Z,1.13
2023-03-13T17:42:13.272Z,1.60
2023-03-13T17:44:42.184Z,1.20
2023-03-13T17:47:18.454Z,1.45
2023-03-13T17:49:47.773Z,1.70
2023-03-13T17:52:17.383Z,1.67
2023-03-13T17:54:46.433Z,1.60
2023-03-13T17:57:16.705Z,1.60
2023-03-13T17:59:45.351Z,1.70
2023-03-13T18:02:15.052Z,1.38
2023-03-13T18:04:43.700Z,1.60
2023-03-13T18:07:18.870Z,1.50
2023-03-13T18:09:47.936Z,2.15
2023-03-13T18:12:16.485Z,1.70
2023-03-13T18:14:44.822Z,1.88
2023-03-13T18:17:16.766Z,1.52
2023-03-13T18:19:44.933Z,1.63
2023-03-13T18:22:16.735Z,1.40
2023-03-13T18:24:45.390Z,1.70
2023-03-13T18:27:14.773Z,1.55
2023-03-13T18:29:43.333Z,1.50
2023-03-13T18:32:13.695Z,1.73
2023-03-13T18:34:42.298Z,1.65
2023-03-13T18:37:21.809Z,1.90
2023-03-13T18:39:51.274Z,2.60
2023-03-13T18:42:19.663Z,1.83
2023-03-13T18:44:47.609Z,2.63
2023-03-13T18:47:18.070Z,2.10
2023-03-13T18:49:46.964Z,2.30
2023-03-13T18:52:14.986Z,2.70
2023-03-13T18:54:45.477Z,2.90
2023-03-13T18:57:15.959Z,2.55
2023-03-13T18:59:44.396Z,2.40
2023-03-13T19:02:15.550Z,2.58
2023-03-13T19:04:44.119Z,2.50
2023-03-13T19:07:15.100Z,2.50
2023-03-13T19:09:45.370Z,2.65
2023-03-13T19:12:16.569Z,2.75
2023-03-13T19:14:44.805Z,2.90
2023-03-13T19:17:20.100Z,2.80
2023-03-13T19:19:48.110Z,2.47
2023-03-13T19:22:16.040Z,2.42
2023-03-13T19:24:44.129Z,2.85
2023-03-13T19:27:16.889Z,3.00
2023-03-13T19:29:45.560Z,3.20
2023-03-13T19:32:15.332Z,3.47
2023-03-13T19:34:43.375Z,3.03
2023-03-13T19:37:12.392Z,2.80
2023-03-13T19:39:40.424Z,2.78
2023-03-13T19:42:08.789Z,2.80
2023-03-13T19:44:40.291Z,3.10
2023-03-13T19:47:08.323Z,2.80
2023-03-13T19:49:36.215Z,3.22
2023-03-13T19:52:04.318Z,3.50
2023-03-13T19:54:32.281Z,2.47
2023-03-13T19:57:00.305Z,2.95
2023-03-13T19:59:28.322Z,2.90
2023-03-13T20:01:57.703Z,3.22
2023-03-13T20:04:25.791Z,3.03
2023-03-13T20:06:53.717Z,3.25
2023-03-13T20:09:21.642Z,3.17
2023-03-13T20:11:49.901Z,3.78
2023-03-13T20:14:17.846Z,3.00
2023-03-13T20:16:48.895Z,3.47
2023-03-13T20:19:18.359Z,3.33
2023-03-13T20:21:46.699Z,3.05
2023-03-13T20:24:14.696Z,3.40
2023-03-13T20:26:42.919Z,3.33
2023-03-13T20:29:10.847Z,3.20
2023-03-13T20:31:38.773Z,3.88
2023-03-13T20:34:06.732Z,3.58
2023-03-13T20:36:36.073Z,3.65
2023-03-13T20:39:05.520Z,3.28
2023-03-13T20:41:33.656Z,3.42
2023-03-13T20:44:01.566Z,3.28
2023-03-13T20:46:29.558Z,3.10
2023-03-13T20:48:59.029Z,3.70
2023-03-13T20:51:27.786Z,4.07
2023-03-13T20:53:57.200Z,4.05
2023-03-13T20:56:25.119Z,4.47
2023-03-13T20:58:53.074Z,3.47
2023-03-13T21:01:22.429Z,3.20
2023-03-13T21:03:50.496Z,2.88
2023-03-13T21:06:19.764Z,2.95
2023-03-13T21:08:47.953Z,2.25
2023-03-13T21:11:19.456Z,2.40
2023-03-13T21:13:47.776Z,2.25
2023-03-13T21:16:17.036Z,1.85
2023-03-13T21:18:45.011Z,1.40
2023-03-13T21:21:17.123Z,0.90
2023-03-13T21:23:45.626Z,0.90
2023-03-13T21:26:13.755Z,0.77
2023-03-13T21:28:43.377Z,0.80
2023-03-13T21:31:12.733Z,0.60
2023-03-13T21:33:41.460Z,0.38
2023-03-13T21:36:10.365Z,0.38
2023-03-13T21:38:38.456Z,0.50
2023-03-13T21:41:10.699Z,0.22
2023-03-13T21:43:41.463Z,0.43
2023-03-13T21:46:11.713Z,0.20
2023-03-13T21:48:40.708Z,0.20
2023-03-13T21:51:09.587Z,0.20
2023-03-13T21:53:38.449Z,0.30
2023-03-13T21:56:07.203Z,0.22
2023-03-13T21:58:35.134Z,0.40
2023-03-13T22:01:03.406Z,0.30
2023-03-13T22:03:32.829Z,0.40
2023-03-13T22:06:00.711Z,0.30
2023-03-13T22:08:28.815Z,0.30
2023-03-13T22:10:58.680Z,0.20
2023-03-13T22:13:26.677Z,0.20
2023-03-13T22:15:54.772Z,0.30
2023-03-13T22:18:22.745Z,0.30
2023-03-13T22:20:52.049Z,0.30
2023-03-13T22:23:19.925Z,0.40
2023-03-13T22:25:48.213Z,0.30
2023-03-13T22:28:16.623Z,0.60
2023-03-13T22:30:45.939Z,0.52
2023-03-13T22:33:13.993Z,0.30
2023-03-13T22:35:42.209Z,0.22
2023-03-13T22:38:12.001Z,0.40
2023-03-13T22:40:39.937Z,0.63
2023-03-13T22:43:07.819Z,0.52
2023-03-13T22:45:36.379Z,0.40
2023-03-13T22:48:06.630Z,0.30
2023-03-13T22:50:34.855Z,0.47
2023-03-13T22:53:02.951Z,0.57
2023-03-13T22:55:33.363Z,0.50
2023-03-13T22:58:01.718Z,0.30
2023-03-13T23:00:29.647Z,0.60
2023-03-13T23:02:57.613Z,0.43
2023-03-13T23:05:25.626Z,0.40
2023-03-13T23:07:53.558Z,0.60
2023-03-13T23:10:21.655Z,0.55
2023-03-13T23:12:50.977Z,0.30
2023-03-13T23:15:18.976Z,0.60
2023-03-13T23:17:47.059Z,0.43
2023-03-13T23:20:16.135Z,0.60
2023-03-13T23:22:45.858Z,0.40
2023-03-13T23:25:14.858Z,0.40
2023-03-13T23:27:43.617Z,0.60
2023-03-13T23:30:15.771Z,0.38
2023-03-13T23:32:46.754Z,0.60
2023-03-13T23:35:16.938Z,0.30
2023-03-13T23:37:49.335Z,0.38
2023-03-13T23:40:17.627Z,0.30
2023-03-13T23:42:46.522Z,0.30
2023-03-13T23:45:15.980Z,0.40
2023-03-13T23:47:44.646Z,0.20
2023-03-13T23:50:12.990Z,0.30
2023-03-13T23:52:41.031Z,0.20
2023-03-13T23:55:09.945Z,0.25
2023-03-13T23:57:38.490Z,0.20
